createdAt,value
2018-07-13T00:01:05.556Z,6.90
2018-07-13T00:03:10.125Z,7.00
2018-07-13T00:05:15.748Z,7.67
2018-07-13T00:07:20.475Z,7.83
2018-07-13T00:09:30.159Z,7.00
2018-07-13T00:11:34.677Z,7.20
2018-07-13T00:13:52.332Z,7.40
2018-07-13T00:16:03.680Z,7.30
2018-07-13T00:18:08.189Z,8.23
2018-07-13T00:20:12.754Z,7.40
2018-07-13T00:22:17.270Z,7.70
2018-07-13T00:24:21.788Z,7.60
2018-07-13T00:26:26.362Z,7.70
2018-07-13T00:28:30.875Z,8.10
2018-07-13T00:30:35.344Z,6.23
2018-07-13T00:32:39.798Z,7.63
2018-07-13T00:34:44.397Z,7.60
2018-07-13T00:36:48.916Z,7.87
2018-07-13T00:38:53.132Z,7.80
2018-07-13T00:40:57.483Z,6.50
2018-07-13T00:43:01.931Z,7.63
2018-07-13T00:45:06.536Z,7.47
2018-07-13T00:47:11.559Z,7.03
2018-07-13T00:49:16.316Z,7.67
2018-07-13T00:51:20.802Z,7.27
2018-07-13T00:53:25.500Z,7.07
2018-07-13T00:55:30.322Z,7.23
2018-07-13T00:57:35.016Z,8.23
2018-07-13T00:59:39.824Z,7.57
2018-07-13T01:01:44.409Z,7.30
2018-07-13T01:03:49.001Z,7.63
2018-07-13T01:05:53.596Z,8.10
2018-07-13T01:07:58.243Z,7.93
2018-07-13T01:10:02.823Z,7.60
2018-07-13T01:12:07.386Z,8.10
2018-07-13T01:14:11.952Z,7.50
2018-07-13T01:16:16.634Z,7.43
2018-07-13T01:18:21.160Z,7.37
2018-07-13T01:20:26.276Z,6.97
2018-07-13T01:22:31.720Z,7.00
2018-07-13T01:24:36.752Z,8.17
2018-07-13T01:26:41.454Z,7.60
2018-07-13T01:28:46.045Z,6.93
2018-07-13T01:30:50.669Z,7.93
2018-07-13T01:32:55.175Z,7.63
2018-07-13T01:34:59.705Z,8.83
2018-07-13T01:37:04.285Z,7.27
2018-07-13T01:39:11.418Z,7.50
2018-07-13T01:41:15.887Z,8.13
2018-07-13T01:43:20.377Z,7.37
2018-07-13T01:45:24.895Z,7.40
2018-07-13T01:47:29.422Z,7.60
2018-07-13T01:49:33.908Z,8.57
2018-07-13T01:51:38.437Z,7.50
2018-07-13T01:53:42.894Z,7.77
2018-07-13T01:55:47.416Z,7.13
2018-07-13T01:57:52.025Z,7.03
2018-07-13T01:59:56.458Z,7.60
2018-07-13T02:02:00.974Z,7.93
2018-07-13T02:04:05.447Z,7.73
2018-07-13T02:06:09.963Z,7.43
2018-07-13T02:08:14.454Z,8.30
2018-07-13T02:10:19.590Z,7.70
2018-07-13T02:12:24.217Z,8.60
2018-07-13T02:14:28.685Z,7.47
2018-07-13T02:16:33.227Z,7.70
2018-07-13T02:18:37.735Z,7.23
2018-07-13T02:20:42.265Z,7.70
2018-07-13T02:22:46.785Z,8.27
2018-07-13T02:24:51.307Z,7.30
2018-07-13T02:26:55.777Z,7.97
2018-07-13T02:29:00.344Z,8.10
2018-07-13T02:31:04.817Z,7.50
2018-07-13T02:33:09.320Z,7.93
2018-07-13T02:35:13.820Z,7.33
2018-07-13T02:37:18.404Z,7.77
2018-07-13T02:39:22.923Z,8.60
2018-07-13T02:41:27.380Z,7.70
2018-07-13T02:43:32.868Z,8.93
2018-07-13T02:45:37.361Z,8.37
2018-07-13T02:47:41.891Z,7.87
2018-07-13T02:49:46.356Z,8.90
2018-07-13T02:51:51.063Z,9.10
2018-07-13T02:53:55.552Z,8.03
2018-07-13T02:56:00.194Z,7.87
2018-07-13T02:58:04.732Z,8.20
2018-07-13T03:00:09.197Z,9.10
2018-07-13T03:02:13.693Z,8.40
2018-07-13T03:04:18.226Z,8.60
2018-07-13T03:06:22.674Z,8.87
2018-07-13T03:08:27.776Z,9.03
2018-07-13T03:10:32.289Z,7.83
2018-07-13T03:12:36.750Z,8.37
2018-07-13T03:14:41.296Z,8.87
2018-07-13T03:16:45.754Z,7.90
2018-07-13T03:18:50.243Z,8.50
2018-07-13T03:20:54.877Z,9.67
2018-07-13T03:22:59.434Z,7.77
2018-07-13T03:25:04.028Z,9.03
2018-07-13T03:27:08.521Z,9.20
2018-07-13T03:29:13.009Z,8.57
2018-07-13T03:31:17.633Z,8.60
2018-07-13T03:33:22.099Z,10.03
2018-07-13T03:35:26.571Z,8.10
2018-07-13T03:37:31.099Z,8.53
2018-07-13T03:39:36.304Z,8.57
2018-07-13T03:41:40.847Z,7.90
2018-07-13T03:43:45.323Z,8.67
2018-07-13T03:45:49.836Z,8.67
2018-07-13T03:47:54.373Z,8.27
2018-07-13T03:49:58.870Z,8.40
2018-07-13T03:52:03.514Z,7.67
2018-07-13T03:54:08.055Z,7.97
2018-07-13T03:56:12.690Z,8.07
2018-07-13T03:58:17.256Z,8.60
2018-07-13T04:00:21.834Z,7.40
2018-07-13T04:02:26.381Z,8.33
2018-07-13T04:04:31.931Z,8.07
2018-07-13T04:06:36.620Z,8.80
2018-07-13T04:08:41.150Z,8.10
2018-07-13T04:10:45.761Z,8.23
2018-07-13T04:12:50.245Z,8.93
2018-07-13T04:14:54.860Z,8.07
2018-07-13T04:16:59.388Z,9.23
2018-07-13T04:19:03.939Z,8.77
2018-07-13T04:21:08.489Z,8.20
2018-07-13T04:23:13.142Z,7.87
2018-07-13T04:25:17.692Z,8.53
2018-07-13T04:27:22.331Z,8.57
2018-07-13T04:29:26.890Z,8.63
2018-07-13T04:31:31.472Z,8.00
2018-07-13T04:33:35.994Z,8.77
2018-07-13T04:35:40.575Z,8.60
2018-07-13T04:37:45.135Z,8.47
2018-07-13T04:39:49.695Z,8.57
2018-07-13T04:41:54.360Z,9.40
2018-07-13T04:43:58.923Z,9.63
2018-07-13T04:46:03.940Z,8.83
2018-07-13T04:48:08.660Z,8.50
2018-07-13T04:50:13.380Z,8.30
2018-07-13T04:52:18.136Z,9.30
2018-07-13T04:54:22.807Z,8.60
2018-07-13T04:56:27.625Z,9.80
2018-07-13T04:58:32.345Z,9.53
2018-07-13T05:00:37.081Z,9.70
2018-07-13T05:02:41.732Z,9.23
2018-07-13T05:04:46.392Z,9.50
2018-07-13T05:06:51.110Z,9.70
2018-07-13T05:08:55.878Z,10.50
2018-07-13T05:11:00.435Z,9.23
2018-07-13T05:13:05.005Z,10.23
2018-07-13T05:15:10.001Z,10.20
2018-07-13T05:17:14.601Z,9.83
2018-07-13T05:19:19.275Z,10.33
2018-07-13T05:21:23.925Z,10.43
2018-07-13T05:23:28.519Z,9.77
2018-07-13T05:25:33.180Z,10.67
2018-07-13T05:27:38.090Z,10.00
2018-07-13T05:29:42.905Z,11.00
2018-07-13T05:31:47.524Z,9.13
2018-07-13T05:33:52.677Z,9.87
2018-07-13T05:35:57.551Z,10.80
2018-07-13T05:38:03.614Z,10.83
2018-07-13T05:40:08.335Z,10.97
2018-07-13T05:42:13.032Z,10.30
2018-07-13T05:44:18.002Z,10.80
2018-07-13T05:46:24.228Z,10.60
2018-07-13T05:48:29.932Z,10.90
2018-07-13T05:50:35.754Z,11.43
2018-07-13T05:52:40.465Z,10.13
2018-07-13T05:54:45.207Z,10.97
2018-07-13T05:56:50.211Z,10.83
2018-07-13T05:58:54.559Z,10.97
2018-07-13T06:00:59.797Z,10.67
2018-07-13T06:03:05.922Z,12.27
2018-07-13T06:05:10.886Z,10.70
2018-07-13T06:07:15.589Z,11.77
2018-07-13T06:09:20.364Z,10.93
2018-07-13T06:11:25.142Z,11.13
2018-07-13T06:13:29.779Z,10.70
2018-07-13T06:15:34.417Z,10.40
2018-07-13T06:17:39.032Z,10.60
2018-07-13T06:19:43.782Z,12.30
2018-07-13T06:21:48.491Z,11.97
2018-07-13T06:23:53.151Z,12.93
2018-07-13T06:25:58.138Z,13.30
2018-07-13T06:28:02.717Z,14.90
2018-07-13T06:30:07.362Z,12.70
2018-07-13T06:32:11.915Z,13.00
2018-07-13T06:34:16.609Z,13.43
2018-07-13T06:36:21.333Z,12.80
2018-07-13T06:38:26.019Z,14.10
2018-07-13T06:40:30.768Z,13.50
2018-07-13T06:42:35.390Z,13.60
2018-07-13T06:44:40.081Z,13.27
2018-07-13T06:46:47.739Z,13.10
2018-07-13T06:48:52.490Z,14.50
2018-07-13T06:50:57.396Z,14.47
2018-07-13T06:53:02.632Z,14.30
2018-07-13T06:55:07.432Z,14.43
2018-07-13T06:57:19.144Z,15.13
2018-07-13T06:59:23.770Z,13.40
2018-07-13T07:01:28.555Z,14.47
2018-07-13T07:03:34.664Z,14.40
2018-07-13T07:06:16.791Z,14.50
2018-07-13T07:08:21.209Z,14.57
2018-07-13T07:10:25.690Z,14.70
2018-07-13T07:12:54.560Z,15.90
2018-07-13T07:14:59.082Z,14.23
2018-07-13T07:17:03.678Z,16.17
2018-07-13T07:19:08.238Z,15.27
2018-07-13T07:21:12.814Z,14.63
2018-07-13T07:23:17.391Z,13.43
2018-07-13T07:25:24.885Z,13.50
2018-07-13T07:27:29.793Z,13.80
2018-07-13T07:29:34.576Z,14.07
2018-07-13T07:31:42.411Z,13.20
2018-07-13T07:33:47.004Z,13.07
2018-07-13T07:35:51.705Z,12.20
2018-07-13T07:37:56.299Z,14.10
2018-07-13T07:40:01.366Z,12.80
2018-07-13T07:42:06.309Z,11.60
2018-07-13T07:44:11.374Z,12.10
2018-07-13T07:46:15.918Z,12.43
2018-07-13T07:48:20.481Z,12.37
2018-07-13T07:50:25.265Z,12.20
2018-07-13T07:52:30.025Z,12.03
2018-07-13T07:54:34.986Z,11.30
2018-07-13T07:56:39.915Z,11.50
2018-07-13T07:58:44.637Z,10.10
2018-07-13T08:00:49.256Z,10.77
2018-07-13T08:02:58.242Z,10.63
2018-07-13T08:05:03.092Z,10.00
2018-07-13T08:07:08.045Z,10.40
2018-07-13T08:09:12.222Z,10.47
2018-07-13T08:11:17.594Z,9.40
2018-07-13T08:13:23.776Z,9.17
2018-07-13T08:15:28.421Z,9.30
2018-07-13T08:17:34.237Z,9.97
2018-07-13T08:19:38.824Z,9.40
2018-07-13T08:21:45.943Z,8.57
2018-07-13T08:23:51.064Z,9.20
2018-07-13T08:25:57.237Z,8.57
2018-07-13T08:28:03.317Z,10.03
2018-07-13T08:30:11.420Z,9.17
2018-07-13T08:32:16.423Z,7.83
2018-07-13T08:34:21.483Z,8.20
2018-07-13T08:36:26.661Z,8.77
2018-07-13T08:38:31.641Z,7.97
2018-07-13T08:40:36.724Z,7.57
2018-07-13T08:42:42.305Z,6.90
2018-07-13T08:44:47.595Z,7.13
2018-07-13T08:46:52.935Z,8.03
2018-07-13T08:48:58.372Z,8.00
2018-07-13T08:51:03.546Z,7.13
2018-07-13T08:53:08.580Z,7.10
2018-07-13T08:55:18.883Z,7.27
2018-07-13T08:57:23.980Z,8.50
2018-07-13T08:59:29.638Z,7.97
2018-07-13T09:01:34.908Z,9.03
2018-07-13T09:03:41.271Z,8.50
2018-07-13T09:05:46.802Z,8.00
2018-07-13T09:07:53.751Z,7.00
2018-07-13T09:10:00.371Z,7.67
2018-07-13T09:12:06.094Z,7.60
2018-07-13T09:14:11.139Z,7.10
2018-07-13T09:16:16.214Z,7.70
2018-07-13T09:18:20.683Z,7.03
2018-07-13T09:20:25.683Z,6.37
2018-07-13T09:22:30.623Z,6.33
2018-07-13T09:24:34.816Z,7.50
2018-07-13T09:26:39.302Z,7.17
2018-07-13T09:28:43.891Z,7.50
2018-07-13T09:30:48.464Z,6.93
2018-07-13T09:32:53.054Z,6.90
2018-07-13T09:34:57.714Z,8.07
2018-07-13T09:37:02.446Z,9.03
2018-07-13T09:39:08.797Z,7.80
2018-07-13T09:41:13.501Z,8.10
2018-07-13T09:43:18.130Z,7.67
2018-07-13T09:45:22.741Z,7.70
2018-07-13T09:47:27.316Z,7.30
2018-07-13T09:49:31.980Z,7.00
2018-07-13T09:51:36.720Z,8.00
2018-07-13T09:53:40.891Z,7.07
2018-07-13T09:55:45.386Z,7.97
2018-07-13T09:57:50.104Z,7.87
2018-07-13T09:59:54.727Z,7.00
2018-07-13T10:01:59.732Z,7.17
2018-07-13T10:04:04.479Z,7.10
2018-07-13T10:06:09.190Z,7.37
2018-07-13T10:08:13.832Z,7.60
2018-07-13T10:10:18.351Z,7.70
2018-07-13T10:12:22.963Z,7.40
2018-07-13T10:14:27.585Z,7.23
2018-07-13T10:16:32.244Z,7.87
2018-07-13T10:18:37.043Z,7.47
2018-07-13T10:20:41.894Z,7.70
2018-07-13T10:22:46.700Z,6.90
2018-07-13T10:24:52.226Z,6.60
2018-07-13T10:26:58.085Z,7.17
2018-07-13T10:29:04.573Z,6.43
2018-07-13T10:31:09.991Z,7.73
2018-07-13T10:33:15.920Z,7.00
2018-07-13T10:35:20.589Z,7.40
2018-07-13T10:37:26.927Z,6.43
2018-07-13T10:39:31.961Z,7.20
2018-07-13T10:41:36.583Z,6.20
2018-07-13T10:43:41.443Z,6.63
2018-07-13T10:45:45.996Z,5.70
2018-07-13T10:47:50.831Z,6.90
2018-07-13T10:49:54.890Z,6.60
2018-07-13T10:51:59.320Z,5.87
2018-07-13T10:54:03.850Z,6.80
2018-07-13T10:56:08.389Z,6.90
2018-07-13T10:58:13.555Z,6.20
2018-07-13T11:00:18.589Z,6.83
2018-07-13T11:02:23.129Z,6.90
2018-07-13T11:04:28.704Z,6.00
2018-07-13T11:06:33.218Z,6.53
2018-07-13T11:08:37.760Z,6.17
2018-07-13T11:10:42.309Z,6.73
2018-07-13T11:12:46.839Z,7.17
2018-07-13T11:14:51.332Z,5.40
2018-07-13T11:16:55.802Z,5.97
2018-07-13T11:19:04.925Z,5.80
2018-07-13T11:21:10.468Z,5.70
2018-07-13T11:23:14.967Z,6.03
2018-07-13T11:25:19.456Z,5.73
2018-07-13T11:27:23.964Z,6.63
2018-07-13T11:29:28.501Z,6.20
2018-07-13T11:31:32.947Z,5.90
2018-07-13T11:33:37.423Z,5.97
2018-07-13T11:35:41.978Z,5.70
2018-07-13T11:37:46.522Z,6.13
2018-07-13T11:39:51.366Z,5.50
2018-07-13T11:41:55.814Z,5.80
2018-07-13T11:44:00.347Z,4.93
2018-07-13T11:46:04.833Z,6.10
2018-07-13T11:48:09.330Z,6.07
2018-07-13T11:50:13.870Z,5.40
2018-07-13T11:52:18.455Z,6.47
2018-07-13T11:54:23.462Z,6.13
2018-07-13T11:56:27.954Z,5.67
2018-07-13T11:58:32.518Z,5.30
2018-07-13T12:00:37.040Z,5.40
2018-07-13T12:02:41.510Z,5.40
2018-07-13T12:04:46.315Z,4.63
2018-07-13T12:06:50.817Z,5.30
2018-07-13T12:08:55.337Z,5.80
2018-07-13T12:10:59.859Z,6.33
2018-07-13T12:13:04.331Z,5.70
2018-07-13T12:15:08.895Z,5.20
2018-07-13T12:17:13.095Z,5.90
2018-07-13T12:19:17.432Z,5.93
2018-07-13T12:21:21.980Z,5.00
2018-07-13T12:23:28.291Z,6.40
2018-07-13T12:25:32.893Z,5.57
2018-07-13T12:27:37.524Z,6.20
2018-07-13T12:29:42.379Z,5.53
2018-07-13T12:31:47.369Z,6.50
2018-07-13T12:33:51.835Z,6.20
2018-07-13T12:35:56.599Z,5.90
2018-07-13T12:38:01.370Z,6.90
2018-07-13T12:40:05.915Z,6.20
2018-07-13T12:42:10.489Z,6.50
2018-07-13T12:44:15.040Z,6.50
2018-07-13T12:46:20.118Z,6.27
2018-07-13T12:48:24.714Z,6.70
2018-07-13T12:50:29.234Z,6.27
2018-07-13T12:52:33.798Z,5.87
2018-07-13T12:54:38.371Z,5.67
2018-07-13T12:56:42.929Z,5.80
2018-07-13T12:58:47.396Z,6.47
2018-07-13T13:00:51.893Z,5.53
2018-07-13T13:02:56.483Z,6.17
2018-07-13T13:05:00.938Z,5.93
2018-07-13T13:07:05.483Z,5.60
2018-07-13T13:09:09.995Z,5.87
2018-07-13T13:11:14.526Z,5.47
2018-07-13T13:13:19.023Z,5.70
2018-07-13T13:15:23.537Z,5.23
2018-07-13T13:17:28.077Z,5.77
2018-07-13T13:19:33.296Z,5.50
2018-07-13T13:21:37.901Z,6.20
2018-07-13T13:23:42.401Z,5.30
2018-07-13T13:25:46.907Z,6.60
2018-07-13T13:27:53.213Z,5.87
2018-07-13T13:29:58.493Z,5.30
2018-07-13T13:32:03.744Z,5.13
2018-07-13T13:34:09.309Z,5.57
2018-07-13T13:36:13.956Z,5.70
2018-07-13T13:38:18.448Z,6.10
2018-07-13T13:40:23.889Z,5.20
2018-07-13T13:42:28.408Z,5.47
2018-07-13T13:44:32.912Z,5.70
2018-07-13T13:46:37.426Z,6.00
2018-07-13T13:48:41.988Z,5.50
2018-07-13T13:50:46.537Z,5.70
2018-07-13T13:52:51.098Z,6.03
2018-07-13T13:54:55.705Z,5.10
2018-07-13T13:57:00.965Z,5.83
2018-07-13T13:59:05.497Z,5.03
2018-07-13T14:01:10.084Z,5.73
2018-07-13T14:03:14.645Z,5.67
2018-07-13T14:05:19.304Z,5.10
2018-07-13T14:07:23.932Z,5.10
2018-07-13T14:09:28.458Z,5.03
2018-07-13T14:11:33.002Z,5.13
2018-07-13T14:13:37.526Z,5.23
2018-07-13T14:15:42.080Z,5.30
2018-07-13T14:17:46.573Z,5.33
2018-07-13T14:19:51.085Z,6.10
2018-07-13T14:21:55.251Z,5.00
2018-07-13T14:23:59.652Z,5.27
2018-07-13T14:26:04.212Z,5.90
2018-07-13T14:28:08.723Z,6.10
2018-07-13T14:30:13.214Z,5.70
2018-07-13T14:32:17.789Z,5.50
2018-07-13T14:34:22.349Z,5.17
2018-07-13T14:36:26.846Z,5.50
2018-07-13T14:38:31.373Z,5.70
2018-07-13T14:40:35.971Z,5.50
2018-07-13T14:42:40.561Z,5.90
2018-07-13T14:44:45.158Z,4.90
2018-07-13T14:46:49.781Z,4.90
2018-07-13T14:48:54.489Z,5.70
2018-07-13T14:50:59.182Z,5.50
2018-07-13T14:53:03.807Z,5.00
2018-07-13T14:55:08.433Z,5.40
2018-07-13T14:57:12.998Z,5.10
2018-07-13T14:59:17.501Z,6.13
2018-07-13T15:01:22.123Z,6.20
2018-07-13T15:03:26.800Z,5.97
2018-07-13T15:05:31.621Z,5.70
2018-07-13T15:07:36.305Z,6.23
2018-07-13T15:09:40.806Z,6.50
2018-07-13T15:11:45.527Z,5.40
2018-07-13T15:13:50.308Z,6.10
2018-07-13T15:15:54.789Z,6.53
2018-07-13T15:17:59.423Z,6.33
2018-07-13T15:20:04.134Z,6.00
2018-07-13T15:22:08.902Z,6.50
2018-07-13T15:24:13.633Z,6.30
2018-07-13T15:26:18.084Z,7.40
2018-07-13T15:28:22.632Z,6.40
2018-07-13T15:30:27.079Z,6.30
2018-07-13T15:32:31.905Z,6.70
2018-07-13T15:34:36.468Z,6.07
2018-07-13T15:36:40.943Z,5.50
2018-07-13T15:38:45.887Z,6.20
2018-07-13T15:40:50.349Z,5.73
2018-07-13T15:42:54.888Z,5.90
2018-07-13T15:44:59.435Z,6.23
2018-07-13T15:47:03.972Z,6.77
2018-07-13T15:49:08.497Z,6.10
2018-07-13T15:51:13.071Z,5.40
2018-07-13T15:53:18.300Z,5.20
2018-07-13T15:55:27.057Z,5.63
2018-07-13T15:57:31.159Z,5.33
2018-07-13T15:59:35.654Z,5.90
2018-07-13T16:01:40.365Z,5.30
2018-07-13T16:03:45.007Z,5.50
2018-07-13T16:05:49.634Z,5.47
2018-07-13T16:07:54.268Z,5.23
2018-07-13T16:09:58.749Z,5.10
2018-07-13T16:12:03.280Z,5.83
2018-07-13T16:14:08.296Z,5.13
2018-07-13T16:16:12.961Z,5.87
2018-07-13T16:18:17.032Z,6.80
2018-07-13T16:20:21.917Z,6.17
2018-07-13T16:22:26.475Z,5.17
2018-07-13T16:24:30.712Z,5.47
2018-07-13T16:26:34.751Z,5.13
2018-07-13T16:28:39.377Z,5.23
2018-07-13T16:30:43.931Z,5.13
2018-07-13T16:32:48.510Z,5.13
2018-07-13T16:34:52.634Z,5.27
2018-07-13T16:36:57.066Z,4.80
2018-07-13T16:39:01.657Z,4.90
2018-07-13T16:41:06.460Z,5.20
2018-07-13T16:43:10.961Z,4.40
2018-07-13T16:45:16.341Z,3.80
2018-07-13T16:47:20.918Z,3.80
2018-07-13T16:49:25.674Z,3.93
2018-07-13T16:51:30.343Z,4.00
2018-07-13T16:53:34.954Z,4.47
2018-07-13T16:55:39.646Z,3.70
2018-07-13T16:57:44.238Z,4.00
2018-07-13T16:59:48.799Z,4.43
2018-07-13T17:01:53.296Z,4.13
2018-07-13T17:03:57.861Z,4.60
2018-07-13T17:06:03.156Z,4.40
2018-07-13T17:08:07.646Z,3.90
2018-07-13T17:10:12.151Z,3.90
2018-07-13T17:12:16.942Z,3.67
2018-07-13T17:14:22.620Z,4.07
2018-07-13T17:16:27.432Z,3.90
2018-07-13T17:18:31.984Z,3.80
2018-07-13T17:20:36.635Z,4.20
2018-07-13T17:22:41.136Z,4.63
2018-07-13T17:24:47.471Z,4.23
2018-07-13T17:26:54.454Z,4.20
2018-07-13T17:28:58.911Z,4.20
2018-07-13T17:31:03.510Z,4.17
2018-07-13T17:33:07.975Z,3.93
2018-07-13T17:35:12.540Z,4.30
2018-07-13T17:37:17.321Z,3.97
2018-07-13T17:39:21.901Z,4.13
2018-07-13T17:41:26.467Z,4.00
2018-07-13T17:43:30.960Z,4.10
2018-07-13T17:45:35.582Z,4.00
2018-07-13T17:47:40.207Z,4.50
2018-07-13T17:49:44.761Z,3.80
2018-07-13T17:51:49.533Z,4.00
2018-07-13T17:53:53.773Z,4.63
2018-07-13T17:55:58.219Z,4.77
2018-07-13T17:58:02.677Z,4.27
2018-07-13T18:00:07.453Z,4.30
2018-07-13T18:02:11.919Z,4.57
2018-07-13T18:04:16.409Z,4.67
2018-07-13T18:06:20.891Z,4.60
2018-07-13T18:08:25.380Z,4.80
2018-07-13T18:10:29.884Z,4.80
2018-07-13T18:12:34.455Z,4.47
2018-07-13T18:14:38.523Z,4.20
2018-07-13T18:16:42.853Z,4.40
2018-07-13T18:18:47.399Z,4.97
2018-07-13T18:20:51.936Z,4.90
2018-07-13T18:22:56.477Z,4.50
2018-07-13T18:25:01.125Z,4.40
2018-07-13T18:27:05.673Z,4.83
2018-07-13T18:29:10.161Z,4.47
2018-07-13T18:31:14.695Z,4.00
2018-07-13T18:33:19.163Z,4.40
2018-07-13T18:35:23.690Z,5.03
2018-07-13T18:37:28.136Z,4.40
2018-07-13T18:39:32.663Z,4.20
2018-07-13T18:41:37.140Z,4.67
2018-07-13T18:43:41.755Z,4.50
2018-07-13T18:45:46.193Z,4.17
2018-07-13T18:47:51.096Z,4.97
2018-07-13T18:49:55.610Z,5.40
2018-07-13T18:52:00.096Z,4.67
2018-07-13T18:54:04.619Z,4.43
2018-07-13T18:56:09.224Z,4.30
2018-07-13T18:58:13.999Z,4.60
2018-07-13T19:00:18.509Z,5.10
2018-07-13T19:02:22.997Z,5.13
2018-07-13T19:04:27.522Z,4.43
2018-07-13T19:06:31.989Z,4.50
2018-07-13T19:08:36.589Z,4.13
2018-07-13T19:10:41.124Z,5.43
2018-07-13T19:12:45.693Z,5.03
2018-07-13T19:14:50.250Z,4.87
2018-07-13T19:16:54.769Z,5.30
2018-07-13T19:18:59.255Z,5.23
2018-07-13T19:21:03.815Z,4.60
2018-07-13T19:23:08.360Z,4.70
2018-07-13T19:25:12.896Z,4.40
2018-07-13T19:27:18.530Z,4.47
2018-07-13T19:29:23.902Z,4.20
2018-07-13T19:31:28.372Z,4.47
2018-07-13T19:33:32.902Z,4.10
2018-07-13T19:35:37.495Z,4.23
2018-07-13T19:37:41.981Z,4.20
2018-07-13T19:39:46.498Z,3.63
2018-07-13T19:41:50.970Z,4.53
2018-07-13T19:43:55.551Z,3.77
2018-07-13T19:46:00.063Z,4.53
2018-07-13T19:48:04.588Z,4.20
2018-07-13T19:50:14.151Z,4.67
2018-07-13T19:52:18.697Z,7.00
2018-07-13T19:54:23.160Z,4.73
2018-07-13T19:56:27.620Z,4.20
2018-07-13T19:58:32.198Z,4.90
2018-07-13T20:00:36.755Z,4.77
2018-07-13T20:02:41.183Z,4.47
2018-07-13T20:04:45.737Z,4.73
2018-07-13T20:06:50.303Z,4.90
2018-07-13T20:08:54.752Z,4.20
2018-07-13T20:10:59.206Z,4.67
2018-07-13T20:13:03.716Z,4.50
2018-07-13T20:15:08.250Z,3.83
2018-07-13T20:17:12.740Z,4.13
2018-07-13T20:19:17.214Z,4.17
2018-07-13T20:21:21.729Z,4.17
2018-07-13T20:23:26.213Z,4.97
2018-07-13T20:25:30.712Z,4.53
2018-07-13T20:27:35.325Z,4.30
2018-07-13T20:29:39.923Z,3.93
2018-07-13T20:31:44.357Z,4.90
2018-07-13T20:33:48.853Z,4.30
2018-07-13T20:35:53.397Z,4.40
2018-07-13T20:37:57.825Z,4.87
2018-07-13T20:40:02.429Z,5.00
2018-07-13T20:42:07.016Z,8.67
2018-07-13T20:44:11.450Z,8.73
2018-07-13T20:46:17.874Z,5.30
2018-07-13T20:48:22.376Z,5.27
2018-07-13T20:50:26.935Z,5.50
2018-07-13T20:52:31.521Z,5.00
2018-07-13T20:54:35.942Z,4.70
2018-07-13T20:56:40.449Z,4.60
2018-07-13T20:58:44.958Z,4.17
2018-07-13T21:00:49.563Z,4.80
2018-07-13T21:02:54.213Z,4.80
2018-07-13T21:04:58.706Z,4.50
2018-07-13T21:07:03.356Z,4.63
2018-07-13T21:09:08.333Z,4.07
2018-07-13T21:11:13.203Z,4.77
2018-07-13T21:13:17.753Z,4.10
2018-07-13T21:15:22.369Z,4.20
2018-07-13T21:17:27.669Z,4.30
2018-07-13T21:19:35.330Z,4.00
2018-07-13T21:21:39.931Z,4.60
2018-07-13T21:23:44.442Z,4.40
2018-07-13T21:25:49.035Z,4.03
2018-07-13T21:27:53.477Z,4.83
2018-07-13T21:29:57.895Z,5.50
2018-07-13T21:32:02.456Z,4.27
2018-07-13T21:34:06.965Z,5.20
2018-07-13T21:36:11.155Z,4.30
2018-07-13T21:38:15.599Z,4.90
2018-07-13T21:40:21.003Z,4.70
2018-07-13T21:42:25.605Z,5.00
2018-07-13T21:44:30.208Z,4.60
2018-07-13T21:46:34.794Z,4.67
2018-07-13T21:48:39.253Z,4.27
2018-07-13T21:50:43.856Z,5.20
2018-07-13T21:52:52.351Z,4.57
2018-07-13T21:55:01.754Z,5.00
2018-07-13T21:57:08.818Z,4.77
2018-07-13T21:59:15.299Z,4.27
2018-07-13T22:01:21.128Z,5.03
2018-07-13T22:03:25.748Z,5.20
2018-07-13T22:05:32.310Z,4.73
2018-07-13T22:07:38.437Z,6.20
2018-07-13T22:09:43.276Z,5.27
2018-07-13T22:11:52.280Z,4.70
2018-07-13T22:13:58.144Z,5.23
2018-07-13T22:16:03.968Z,5.50
2018-07-13T22:18:18.328Z,5.10
2018-07-13T22:20:24.747Z,4.93
2018-07-13T22:22:31.233Z,4.50
2018-07-13T22:24:37.771Z,4.63
2018-07-13T22:26:45.399Z,5.20
2018-07-13T22:28:50.898Z,5.40
2018-07-13T22:30:59.864Z,4.90
2018-07-13T22:33:05.547Z,4.60
2018-07-13T22:35:13.028Z,5.43
2018-07-13T22:37:18.017Z,5.07
2018-07-13T22:39:23.242Z,4.73
2018-07-13T22:41:27.763Z,5.37
2018-07-13T22:43:32.348Z,4.40
2018-07-13T22:45:37.096Z,5.70
2018-07-13T22:47:41.636Z,4.90
2018-07-13T22:49:46.317Z,4.90
2018-07-13T22:51:50.859Z,5.00
2018-07-13T22:53:55.417Z,5.33
2018-07-13T22:56:00.529Z,5.30
2018-07-13T22:58:05.269Z,5.10
2018-07-13T23:00:10.932Z,5.03
2018-07-13T23:02:18.199Z,4.93
2018-07-13T23:04:22.913Z,4.47
2018-07-13T23:06:27.380Z,4.37
2018-07-13T23:08:32.420Z,5.00
2018-07-13T23:10:38.249Z,5.27
2018-07-13T23:12:44.824Z,4.70
2018-07-13T23:14:49.564Z,5.50
2018-07-13T23:16:56.261Z,5.30
2018-07-13T23:19:00.811Z,5.20
2018-07-13T23:21:06.136Z,5.07
2018-07-13T23:23:10.934Z,5.23
2018-07-13T23:25:15.863Z,5.20
2018-07-13T23:27:21.605Z,4.63
2018-07-13T23:29:26.572Z,5.33
2018-07-13T23:31:37.490Z,5.20
2018-07-13T23:33:44.317Z,5.53
2018-07-13T23:35:50.646Z,5.30
2018-07-13T23:37:56.999Z,5.60
2018-07-13T23:40:02.413Z,5.20
2018-07-13T23:42:08.437Z,4.97
2018-07-13T23:44:13.126Z,5.70
2018-07-13T23:46:17.622Z,4.90
2018-07-13T23:48:22.137Z,5.33
2018-07-13T23:50:27.210Z,5.60
2018-07-13T23:52:33.484Z,5.13
2018-07-13T23:54:38.025Z,5.73
2018-07-13T23:56:44.948Z,5.30
2018-07-13T23:58:52.545Z,4.90
